createdAt,value
2022-09-25T00:01:54.683Z,2.37
2022-09-25T00:04:25.483Z,2.00
2022-09-25T00:06:57.929Z,2.17
2022-09-25T00:09:28.729Z,1.80
2022-09-25T00:11:59.487Z,1.70
2022-09-25T00:14:30.274Z,2.53
2022-09-25T00:17:01.074Z,2.17
2022-09-25T00:19:48.346Z,2.03
2022-09-25T00:22:22.198Z,1.70
2022-09-25T00:24:53.419Z,2.27
2022-09-25T00:27:24.230Z,2.13
2022-09-25T00:29:54.974Z,1.50
2022-09-25T00:32:25.698Z,2.00
2022-09-25T00:34:56.435Z,1.90
2022-09-25T00:37:29.401Z,1.30
2022-09-25T00:40:00.174Z,1.40
2022-09-25T00:42:31.727Z,1.30
2022-09-25T00:45:03.303Z,2.10
2022-09-25T00:47:57.141Z,1.97
2022-09-25T00:50:36.593Z,1.77
2022-09-25T00:53:13.223Z,1.70
2022-09-25T00:55:46.883Z,1.80
2022-09-25T00:58:21.251Z,1.50
2022-09-25T01:00:53.262Z,2.73
2022-09-25T01:03:25.554Z,1.80
2022-09-25T01:05:57.205Z,1.73
2022-09-25T01:08:31.305Z,2.93
2022-09-25T01:11:02.158Z,1.77
2022-09-25T01:13:33.485Z,2.10
2022-09-25T01:16:12.476Z,3.43
2022-09-25T01:18:59.445Z,2.00
2022-09-25T01:21:38.635Z,2.80
2022-09-25T01:24:40.954Z,1.70
2022-09-25T01:27:47.288Z,1.87
2022-09-25T01:30:21.419Z,2.23
2022-09-25T01:33:01.450Z,2.43
2022-09-25T01:35:43.230Z,2.53
2022-09-25T01:38:24.661Z,2.13
2022-09-25T01:41:03.866Z,2.13
2022-09-25T01:43:40.483Z,2.60
2022-09-25T01:46:19.005Z,3.20
2022-09-25T01:48:54.155Z,2.57
2022-09-25T01:51:27.747Z,2.67
2022-09-25T01:54:02.448Z,2.40
2022-09-25T01:56:36.535Z,2.50
2022-09-25T01:59:11.747Z,2.30
2022-09-25T02:01:46.268Z,2.77
2022-09-25T02:04:22.702Z,2.73
2022-09-25T02:06:55.472Z,2.63
2022-09-25T02:09:32.832Z,1.70
2022-09-25T02:12:09.554Z,2.73
2022-09-25T02:14:44.425Z,3.17
2022-09-25T02:17:40.482Z,2.40
2022-09-25T02:20:28.609Z,2.07
2022-09-25T02:23:06.539Z,2.87
2022-09-25T02:25:40.942Z,2.40
2022-09-25T02:28:11.709Z,2.60
2022-09-25T02:30:42.624Z,2.40
2022-09-25T02:33:15.049Z,1.73
2022-09-25T02:35:45.844Z,2.80
2022-09-25T02:38:17.742Z,2.40
2022-09-25T02:40:56.054Z,2.57
2022-09-25T02:43:39.154Z,2.50
2022-09-25T02:46:13.559Z,2.27
2022-09-25T02:48:52.792Z,4.20
2022-09-25T02:51:29.895Z,2.40
2022-09-25T02:54:11.008Z,2.50
2022-09-25T02:56:47.266Z,2.40
2022-09-25T02:59:22.217Z,2.40
2022-09-25T03:01:54.247Z,3.00
2022-09-25T03:04:29.037Z,1.90
2022-09-25T03:07:01.609Z,2.93
2022-09-25T03:09:36.310Z,2.50
2022-09-25T03:12:07.561Z,2.40
2022-09-25T03:14:38.273Z,2.20
2022-09-25T03:17:11.113Z,1.97
2022-09-25T03:19:43.497Z,2.50
2022-09-25T03:22:14.424Z,2.17
2022-09-25T03:24:45.818Z,2.50
2022-09-25T03:27:16.677Z,2.17
2022-09-25T03:29:47.422Z,3.37
2022-09-25T03:32:18.219Z,2.50
2022-09-25T03:34:50.698Z,2.53
2022-09-25T03:37:21.421Z,2.50
2022-09-25T03:39:52.163Z,2.40
2022-09-25T03:42:22.879Z,3.30
2022-09-25T03:44:53.611Z,4.73
2022-09-25T03:47:24.371Z,5.70
2022-09-25T03:49:56.753Z,2.57
2022-09-25T03:52:27.560Z,2.20
2022-09-25T03:54:58.662Z,2.70
2022-09-25T03:57:29.454Z,2.97
2022-09-25T04:00:02.969Z,2.77
2022-09-25T04:02:33.749Z,2.73
2022-09-25T04:05:06.299Z,3.43
2022-09-25T04:07:37.119Z,3.87
2022-09-25T04:10:08.365Z,3.50
2022-09-25T04:12:39.112Z,3.20
2022-09-25T04:15:14.018Z,2.80
2022-09-25T04:17:44.774Z,2.80
2022-09-25T04:20:17.208Z,2.70
2022-09-25T04:22:48.002Z,2.47
2022-09-25T04:25:24.317Z,4.17
2022-09-25T04:27:57.566Z,3.00
2022-09-25T04:30:29.454Z,3.30
2022-09-25T04:33:17.267Z,2.73
2022-09-25T04:35:49.644Z,2.60
2022-09-25T04:38:20.426Z,3.23
2022-09-25T04:40:51.273Z,2.40
2022-09-25T04:43:22.074Z,2.77
2022-09-25T04:45:52.879Z,3.37
2022-09-25T04:48:23.687Z,3.17
2022-09-25T04:50:56.058Z,3.90
2022-09-25T04:53:28.053Z,3.00
2022-09-25T04:56:03.225Z,3.73
2022-09-25T04:58:34.215Z,2.50
2022-09-25T05:01:06.188Z,2.67
2022-09-25T05:03:37.015Z,2.93
2022-09-25T05:06:09.907Z,2.37
2022-09-25T05:08:40.674Z,3.40
2022-09-25T05:11:12.166Z,3.00
2022-09-25T05:13:42.917Z,3.00
2022-09-25T05:16:13.751Z,3.07
2022-09-25T05:18:44.500Z,2.17
2022-09-25T05:21:16.902Z,2.70
2022-09-25T05:23:47.667Z,2.50
2022-09-25T05:26:18.846Z,2.93
2022-09-25T05:28:52.647Z,4.73
2022-09-25T05:31:23.362Z,2.50
2022-09-25T05:33:54.831Z,2.73
2022-09-25T05:36:27.439Z,2.30
2022-09-25T05:38:58.920Z,3.13
2022-09-25T05:41:29.715Z,2.23
2022-09-25T05:44:01.266Z,2.50
2022-09-25T05:46:32.028Z,3.27
2022-09-25T05:49:03.010Z,3.27
2022-09-25T05:51:36.529Z,2.63
2022-09-25T05:54:07.524Z,2.50
2022-09-25T05:56:38.328Z,2.43
2022-09-25T05:59:09.181Z,2.33
2022-09-25T06:01:40.013Z,2.37
2022-09-25T06:04:10.910Z,3.20
2022-09-25T06:06:43.282Z,2.33
2022-09-25T06:09:14.014Z,2.90
2022-09-25T06:11:44.766Z,2.80
2022-09-25T06:14:15.796Z,2.53
2022-09-25T06:16:47.552Z,2.83
2022-09-25T06:19:18.382Z,2.73
2022-09-25T06:21:51.530Z,3.70
2022-09-25T06:24:22.250Z,3.73
2022-09-25T06:26:53.120Z,3.03
2022-09-25T06:29:23.886Z,3.13
2022-09-25T06:31:55.661Z,3.20
2022-09-25T06:34:26.748Z,3.00
2022-09-25T06:36:59.118Z,2.60
2022-09-25T06:39:29.940Z,2.70
2022-09-25T06:42:01.053Z,2.93
2022-09-25T06:44:31.829Z,3.40
2022-09-25T06:47:02.603Z,2.70
2022-09-25T06:49:33.366Z,3.40
2022-09-25T06:52:05.855Z,3.47
2022-09-25T06:54:39.462Z,3.93
2022-09-25T06:57:14.058Z,3.17
2022-09-25T06:59:44.843Z,3.37
2022-09-25T07:02:32.381Z,3.33
2022-09-25T07:05:03.153Z,2.87
2022-09-25T07:07:35.547Z,3.37
2022-09-25T07:10:06.499Z,3.10
2022-09-25T07:12:37.588Z,3.67
2022-09-25T07:15:09.185Z,3.40
2022-09-25T07:17:39.919Z,3.27
2022-09-25T07:20:11.431Z,2.93
2022-09-25T07:22:44.261Z,2.60
2022-09-25T07:25:15.192Z,2.60
2022-09-25T07:27:46.590Z,3.10
2022-09-25T07:30:17.579Z,2.90
2022-09-25T07:32:48.434Z,3.57
2022-09-25T07:35:20.982Z,2.30
2022-09-25T07:37:53.401Z,2.70
2022-09-25T07:40:24.319Z,5.23
2022-09-25T07:42:55.288Z,3.03
2022-09-25T07:45:26.013Z,3.20
2022-09-25T07:47:59.489Z,4.10
2022-09-25T07:50:30.297Z,3.10
2022-09-25T07:53:03.101Z,2.63
2022-09-25T07:55:33.834Z,3.43
2022-09-25T07:58:04.589Z,3.13
2022-09-25T08:00:35.326Z,2.70
2022-09-25T08:03:06.201Z,3.37
2022-09-25T08:05:36.983Z,2.97
2022-09-25T08:08:09.734Z,4.20
2022-09-25T08:10:40.484Z,3.20
2022-09-25T08:13:11.239Z,3.57
2022-09-25T08:15:42.310Z,2.50
2022-09-25T08:18:13.087Z,3.40
2022-09-25T08:20:43.849Z,4.23
2022-09-25T08:23:16.258Z,2.47
2022-09-25T08:25:50.404Z,2.67
2022-09-25T08:28:21.143Z,4.23
2022-09-25T08:30:51.923Z,3.87
2022-09-25T08:33:22.763Z,3.63
2022-09-25T08:35:59.547Z,3.67
2022-09-25T08:38:33.570Z,3.77
2022-09-25T08:41:07.937Z,3.13
2022-09-25T08:43:43.650Z,3.47
2022-09-25T08:46:39.941Z,3.70
2022-09-25T08:49:12.270Z,3.10
2022-09-25T08:51:48.442Z,2.33
2022-09-25T08:54:25.284Z,3.47
2022-09-25T08:56:58.462Z,2.80
2022-09-25T08:59:34.555Z,2.63
2022-09-25T09:02:13.582Z,2.97
2022-09-25T09:04:48.602Z,3.20
2022-09-25T09:07:28.359Z,3.10
2022-09-25T09:10:05.457Z,2.60
2022-09-25T09:12:44.013Z,2.37
2022-09-25T09:15:25.329Z,2.63
2022-09-25T09:17:57.638Z,2.73
2022-09-25T09:20:35.261Z,3.60
2022-09-25T09:23:06.975Z,2.77
2022-09-25T09:25:46.583Z,3.83
2022-09-25T09:28:57.401Z,5.40
2022-09-25T09:31:37.227Z,3.43
2022-09-25T09:35:04.139Z,3.40
2022-09-25T09:37:33.692Z,3.20
2022-09-25T09:40:22.286Z,5.13
2022-09-25T09:43:04.995Z,3.37
2022-09-25T09:45:42.924Z,3.50
2022-09-25T09:48:21.910Z,2.67
2022-09-25T09:50:55.082Z,2.50
2022-09-25T09:53:34.851Z,3.20
2022-09-25T09:56:09.432Z,3.43
2022-09-25T09:58:49.820Z,3.13
2022-09-25T10:01:40.788Z,3.40
2022-09-25T10:04:17.281Z,4.20
2022-09-25T10:06:55.494Z,3.33
2022-09-25T10:09:27.109Z,2.60
2022-09-25T10:12:03.934Z,3.13
2022-09-25T10:14:42.027Z,4.10
2022-09-25T10:17:14.649Z,3.80
2022-09-25T10:19:51.540Z,3.20
2022-09-25T10:22:24.801Z,3.10
2022-09-25T10:24:59.373Z,3.30
2022-09-25T10:27:32.223Z,2.60
2022-09-25T10:30:19.566Z,3.23
2022-09-25T10:33:07.908Z,2.60
2022-09-25T10:35:46.743Z,2.97
2022-09-25T10:38:37.264Z,3.03
2022-09-25T10:41:11.468Z,3.53
2022-09-25T10:43:55.249Z,3.50
2022-09-25T10:46:54.441Z,3.70
2022-09-25T10:49:43.366Z,3.20
2022-09-25T10:52:16.282Z,3.70
2022-09-25T10:54:47.050Z,2.40
2022-09-25T10:57:26.303Z,3.10
2022-09-25T10:59:57.162Z,3.13
2022-09-25T11:02:38.851Z,2.83
2022-09-25T11:05:18.239Z,2.53
2022-09-25T11:07:53.135Z,4.70
2022-09-25T11:10:25.487Z,2.90
2022-09-25T11:12:57.477Z,3.57
2022-09-25T11:15:31.007Z,2.70
2022-09-25T11:18:04.926Z,3.77
2022-09-25T11:20:36.143Z,3.93
2022-09-25T11:23:24.971Z,2.70
2022-09-25T11:26:06.688Z,3.40
2022-09-25T11:28:45.226Z,2.53
2022-09-25T11:31:23.922Z,4.13
2022-09-25T11:34:01.867Z,3.47
2022-09-25T11:36:36.407Z,2.93
2022-09-25T11:39:34.100Z,2.50
2022-09-25T11:42:10.816Z,2.90
2022-09-25T11:44:48.558Z,2.47
2022-09-25T11:47:25.001Z,2.50
2022-09-25T11:49:59.607Z,2.90
2022-09-25T11:52:41.041Z,5.70
2022-09-25T11:55:46.561Z,4.20
2022-09-25T11:58:38.923Z,2.63
2022-09-25T12:01:25.347Z,3.87
2022-09-25T12:04:17.485Z,3.47
2022-09-25T12:07:06.631Z,3.40
2022-09-25T12:09:56.926Z,3.03
2022-09-25T12:12:34.767Z,3.30
2022-09-25T12:15:18.016Z,2.87
2022-09-25T12:18:02.576Z,3.00
2022-09-25T12:20:40.822Z,2.10
2022-09-25T12:23:21.883Z,3.10
2022-09-25T12:26:06.517Z,3.60
2022-09-25T12:28:47.606Z,3.00
2022-09-25T12:31:27.995Z,2.80
2022-09-25T12:34:07.354Z,3.87
2022-09-25T12:36:43.370Z,3.43
2022-09-25T12:39:30.774Z,3.47
2022-09-25T12:42:10.303Z,3.00
2022-09-25T12:44:49.992Z,3.40
2022-09-25T12:47:27.135Z,2.20
2022-09-25T12:50:01.965Z,3.80
2022-09-25T12:52:38.865Z,3.73
2022-09-25T12:55:19.615Z,3.07
2022-09-25T12:57:55.358Z,4.13
2022-09-25T13:00:29.183Z,3.50
2022-09-25T13:03:04.571Z,3.40
2022-09-25T13:05:39.041Z,3.97
2022-09-25T13:08:18.066Z,3.17
2022-09-25T13:10:55.756Z,2.80
2022-09-25T13:13:29.611Z,2.97
2022-09-25T13:16:01.936Z,2.83
2022-09-25T13:18:35.168Z,3.10
2022-09-25T13:21:27.281Z,2.80
2022-09-25T13:24:01.030Z,2.90
2022-09-25T13:26:34.339Z,2.60
2022-09-25T13:29:09.978Z,5.07
2022-09-25T13:31:42.090Z,3.53
2022-09-25T13:34:15.941Z,2.70
2022-09-25T13:36:50.344Z,3.23
2022-09-25T13:39:41.966Z,2.83
2022-09-25T13:42:23.657Z,2.83
2022-09-25T13:45:07.056Z,2.83
2022-09-25T13:47:56.621Z,2.67
2022-09-25T13:50:35.744Z,2.50
2022-09-25T13:53:28.995Z,3.37
2022-09-25T13:56:27.768Z,2.27
2022-09-25T13:59:33.596Z,2.30
2022-09-25T14:02:38.807Z,4.27
2022-09-25T14:05:15.990Z,3.00
2022-09-25T14:07:48.335Z,4.00
2022-09-25T14:10:21.098Z,2.43
2022-09-25T14:12:53.830Z,3.90
2022-09-25T14:15:30.846Z,3.73
2022-09-25T14:18:04.981Z,2.60
2022-09-25T14:20:44.759Z,3.10
2022-09-25T14:23:25.271Z,4.13
2022-09-25T14:26:01.410Z,2.53
2022-09-25T14:28:33.501Z,3.70
2022-09-25T14:31:24.871Z,3.13
2022-09-25T14:34:26.752Z,2.97
2022-09-25T14:37:17.543Z,3.27
2022-09-25T14:39:57.691Z,3.23
2022-09-25T14:42:56.057Z,3.83
2022-09-25T14:45:51.657Z,3.03
2022-09-25T14:48:26.850Z,3.40
2022-09-25T14:51:01.688Z,2.67
2022-09-25T14:53:36.967Z,3.10
2022-09-25T14:56:12.794Z,3.10
2022-09-25T14:58:47.335Z,4.70
2022-09-25T15:01:27.786Z,4.43
2022-09-25T15:04:02.388Z,3.77
2022-09-25T15:06:34.862Z,3.00
2022-09-25T15:09:29.918Z,7.53
2022-09-25T15:12:01.730Z,6.67
2022-09-25T15:14:32.498Z,4.77
2022-09-25T15:17:19.775Z,3.50
2022-09-25T15:19:50.591Z,4.13
2022-09-25T15:22:23.128Z,4.43
2022-09-25T15:24:59.131Z,5.97
2022-09-25T15:27:30.974Z,4.10
2022-09-25T15:30:02.837Z,7.13
2022-09-25T15:32:40.231Z,5.90
2022-09-25T15:35:20.159Z,6.43
2022-09-25T15:37:51.056Z,3.93
2022-09-25T15:40:26.461Z,5.97
2022-09-25T15:42:57.666Z,4.73
2022-09-25T15:45:44.655Z,5.53
2022-09-25T15:48:30.708Z,5.63
2022-09-25T15:51:03.897Z,8.07
2022-09-25T15:53:45.617Z,6.23
2022-09-25T15:56:21.667Z,6.03
2022-09-25T15:58:55.366Z,4.50
2022-09-25T16:01:44.049Z,6.80
2022-09-25T16:04:38.940Z,4.70
2022-09-25T16:07:30.044Z,5.23
2022-09-25T16:10:04.109Z,4.97
2022-09-25T16:12:41.565Z,4.77
2022-09-25T16:15:45.141Z,4.80
2022-09-25T16:18:38.857Z,4.47
2022-09-25T16:21:18.641Z,3.90
2022-09-25T16:23:56.872Z,3.93
2022-09-25T16:26:30.691Z,4.83
2022-09-25T16:29:09.172Z,4.33
2022-09-25T16:31:40.247Z,4.10
2022-09-25T16:34:19.600Z,4.20
2022-09-25T16:36:52.309Z,4.10
2022-09-25T16:39:29.449Z,4.13
2022-09-25T16:42:00.951Z,4.07
2022-09-25T16:44:47.757Z,3.60
2022-09-25T16:47:21.518Z,3.97
2022-09-25T16:49:52.303Z,3.50
2022-09-25T16:52:26.952Z,4.23
2022-09-25T16:54:59.909Z,2.90
2022-09-25T16:57:34.155Z,3.90
2022-09-25T17:00:07.811Z,3.90
2022-09-25T17:02:42.649Z,3.40
2022-09-25T17:05:18.857Z,3.23
2022-09-25T17:07:51.314Z,3.20
2022-09-25T17:10:23.739Z,3.37
2022-09-25T17:12:55.886Z,3.80
2022-09-25T17:15:33.543Z,3.40
2022-09-25T17:18:05.090Z,3.90
2022-09-25T17:20:36.337Z,3.57
2022-09-25T17:23:07.073Z,3.50
2022-09-25T17:25:42.968Z,3.60
2022-09-25T17:28:15.259Z,3.30
2022-09-25T17:30:48.470Z,3.30
2022-09-25T17:33:21.243Z,2.97
2022-09-25T17:35:56.245Z,3.23
2022-09-25T17:38:27.842Z,2.83
2022-09-25T17:41:04.644Z,3.20
2022-09-25T17:43:36.526Z,2.97
2022-09-25T17:46:09.080Z,3.07
2022-09-25T17:48:40.117Z,3.10
2022-09-25T17:51:17.722Z,3.43
2022-09-25T17:53:49.859Z,3.37
2022-09-25T17:56:20.627Z,2.77
2022-09-25T17:58:52.076Z,4.57
2022-09-25T18:01:27.011Z,4.17
2022-09-25T18:03:59.233Z,3.80
2022-09-25T18:06:31.406Z,3.17
2022-09-25T18:09:02.166Z,2.90
2022-09-25T18:11:32.941Z,3.33
2022-09-25T18:14:03.709Z,3.43
2022-09-25T18:16:36.199Z,3.23
2022-09-25T18:19:23.687Z,2.97
2022-09-25T18:22:11.141Z,3.50
2022-09-25T18:24:42.361Z,3.30
2022-09-25T18:27:13.249Z,3.90
2022-09-25T18:29:45.392Z,3.77
2022-09-25T18:32:18.159Z,3.90
2022-09-25T18:34:48.978Z,3.10
2022-09-25T18:37:19.698Z,3.20
2022-09-25T18:39:50.586Z,3.37
2022-09-25T18:42:21.354Z,3.40
2022-09-25T18:44:52.120Z,3.63
2022-09-25T18:47:24.558Z,3.30
2022-09-25T18:49:55.376Z,4.13
2022-09-25T18:52:26.583Z,3.73
2022-09-25T18:54:57.391Z,3.40
2022-09-25T18:57:28.821Z,3.63
2022-09-25T18:59:59.751Z,3.47
2022-09-25T19:02:35.695Z,3.57
2022-09-25T19:05:07.088Z,3.63
2022-09-25T19:07:38.541Z,4.03
2022-09-25T19:10:11.654Z,3.70
2022-09-25T19:12:42.429Z,3.77
2022-09-25T19:15:13.969Z,3.60
2022-09-25T19:17:47.105Z,3.90
2022-09-25T19:20:18.554Z,4.00
2022-09-25T19:22:49.429Z,3.43
2022-09-25T19:25:22.521Z,4.00
2022-09-25T19:27:53.663Z,3.57
2022-09-25T19:30:24.486Z,4.10
2022-09-25T19:32:56.895Z,3.57
2022-09-25T19:35:27.639Z,4.10
2022-09-25T19:37:58.387Z,3.87
2022-09-25T19:40:41.439Z,3.60
2022-09-25T19:43:12.257Z,3.63
2022-09-25T19:45:43.371Z,3.60
2022-09-25T19:48:15.778Z,3.73
2022-09-25T19:50:46.762Z,4.43
2022-09-25T19:53:19.563Z,3.83
2022-09-25T19:55:54.606Z,3.43
2022-09-25T19:58:25.680Z,5.30
2022-09-25T20:00:57.779Z,3.87
2022-09-25T20:03:30.138Z,4.30
2022-09-25T20:06:04.174Z,3.70
2022-09-25T20:08:35.001Z,4.43
2022-09-25T20:11:15.500Z,4.10
2022-09-25T20:13:46.562Z,3.60
2022-09-25T20:16:19.142Z,5.37
2022-09-25T20:18:54.415Z,4.07
2022-09-25T20:21:25.195Z,3.97
2022-09-25T20:23:57.378Z,4.27
2022-09-25T20:26:28.958Z,3.67
2022-09-25T20:29:02.493Z,4.10
2022-09-25T20:31:35.060Z,3.80
2022-09-25T20:34:07.608Z,4.33
2022-09-25T20:36:39.862Z,3.90
2022-09-25T20:39:11.123Z,4.23
2022-09-25T20:41:42.095Z,4.57
2022-09-25T20:44:13.031Z,4.27
2022-09-25T20:46:43.990Z,4.53
2022-09-25T20:49:18.044Z,3.83
2022-09-25T20:51:48.886Z,4.47
2022-09-25T20:54:19.664Z,4.10
2022-09-25T20:56:50.481Z,4.90
2022-09-25T20:59:21.786Z,4.80
2022-09-25T21:01:52.578Z,4.63
2022-09-25T21:04:24.962Z,4.50
2022-09-25T21:06:55.778Z,4.00
2022-09-25T21:09:27.979Z,4.43
2022-09-25T21:11:59.302Z,4.50
2022-09-25T21:14:31.068Z,4.20
2022-09-25T21:17:02.404Z,4.60
2022-09-25T21:19:34.996Z,4.23
2022-09-25T21:22:05.765Z,4.90
2022-09-25T21:24:36.681Z,4.83
2022-09-25T21:27:07.620Z,4.73
2022-09-25T21:29:38.436Z,5.07
2022-09-25T21:32:09.176Z,4.80
2022-09-25T21:34:41.608Z,4.30
2022-09-25T21:37:12.359Z,4.90
2022-09-25T21:39:43.766Z,5.23
2022-09-25T21:42:14.512Z,4.37
2022-09-25T21:44:45.256Z,4.50
2022-09-25T21:47:16.309Z,4.03
2022-09-25T21:49:48.724Z,4.60
2022-09-25T21:52:19.496Z,4.10
2022-09-25T21:54:50.250Z,5.13
2022-09-25T21:57:20.998Z,3.90
2022-09-25T21:59:51.828Z,4.70
2022-09-25T22:02:22.597Z,4.20
2022-09-25T22:04:54.973Z,4.20
2022-09-25T22:07:25.737Z,3.90
2022-09-25T22:09:56.734Z,4.30
2022-09-25T22:12:27.551Z,4.43
2022-09-25T22:14:58.269Z,5.07
2022-09-25T22:17:29.077Z,4.53
2022-09-25T22:20:05.147Z,4.40
2022-09-25T22:22:36.411Z,4.23
2022-09-25T22:25:07.777Z,4.20
2022-09-25T22:27:38.521Z,4.97
2022-09-25T22:30:10.171Z,4.20
2022-09-25T22:32:40.917Z,3.97
2022-09-25T22:35:13.505Z,4.80
2022-09-25T22:37:44.288Z,5.27
2022-09-25T22:40:16.080Z,6.20
2022-09-25T22:42:46.822Z,6.80
2022-09-25T22:45:17.685Z,4.20
2022-09-25T22:47:48.432Z,4.00
2022-09-25T22:50:20.920Z,4.67
2022-09-25T22:52:55.196Z,4.00
2022-09-25T22:55:28.732Z,3.90
2022-09-25T22:57:59.505Z,4.37
2022-09-25T23:00:30.266Z,4.53
2022-09-25T23:03:01.006Z,5.10
2022-09-25T23:05:33.464Z,4.40
2022-09-25T23:08:04.606Z,5.07
2022-09-25T23:10:55.501Z,4.10
2022-09-25T23:13:27.638Z,4.27
2022-09-25T23:15:58.372Z,4.30
2022-09-25T23:18:29.215Z,4.23
2022-09-25T23:21:01.846Z,4.23
2022-09-25T23:23:32.963Z,5.00
2022-09-25T23:26:08.218Z,4.10
2022-09-25T23:28:40.065Z,4.93
2022-09-25T23:31:13.019Z,4.00
2022-09-25T23:33:44.155Z,4.60
2022-09-25T23:36:18.821Z,5.20
2022-09-25T23:38:49.858Z,4.90
2022-09-25T23:41:22.271Z,4.33
2022-09-25T23:43:54.577Z,4.30
2022-09-25T23:46:27.224Z,5.00
2022-09-25T23:48:58.418Z,4.83
2022-09-25T23:51:31.044Z,4.80
2022-09-25T23:54:03.201Z,4.77
2022-09-25T23:56:35.454Z,4.73
2022-09-25T23:59:07.497Z,4.70
